sensor_id;sensor_type;location;lat;lon;timestamp;P1;durP1;ratioP1;P2;durP2;ratioP2
68614;SDS011;55593;51.994;5.882;2023-08-17T00:00:16;7.75;;;2.33;;
68614;SDS011;55593;51.994;5.882;2023-08-17T00:02:45;7.82;;;3.28;;
68614;SDS011;55593;51.994;5.882;2023-08-17T00:05:18;9.57;;;2.47;;
68614;SDS011;55593;51.994;5.882;2023-08-17T00:07:47;5.22;;;2.05;;
68614;SDS011;55593;51.994;5.882;2023-08-17T00:10:16;11.57;;;2.90;;
68614;SDS011;55593;51.994;5.882;2023-08-17T00:12:45;8.10;;;2.10;;
68614;SDS011;55593;51.994;5.882;2023-08-17T00:15:14;5.90;;;2.00;;
68614;SDS011;55593;51.994;5.882;2023-08-17T00:17:43;7.18;;;2.08;;
68614;SDS011;55593;51.994;5.882;2023-08-17T00:20:12;4.60;;;2.03;;
68614;SDS011;55593;51.994;5.882;2023-08-17T00:22:44;9.32;;;2.20;;
68614;SDS011;55593;51.994;5.882;2023-08-17T00:25:14;8.77;;;2.47;;
68614;SDS011;55593;51.994;5.882;2023-08-17T00:27:43;5.50;;;2.13;;
68614;SDS011;55593;51.994;5.882;2023-08-17T00:30:12;6.07;;;2.42;;
68614;SDS011;55593;51.994;5.882;2023-08-17T00:32:42;3.50;;;2.03;;
68614;SDS011;55593;51.994;5.882;2023-08-17T00:35:11;9.35;;;2.40;;
68614;SDS011;55593;51.994;5.882;2023-08-17T00:37:40;10.48;;;2.45;;
68614;SDS011;55593;51.994;5.882;2023-08-17T00:40:12;7.00;;;2.17;;
68614;SDS011;55593;51.994;5.882;2023-08-17T00:42:41;7.63;;;2.58;;
68614;SDS011;55593;51.994;5.882;2023-08-17T00:45:10;6.28;;;2.13;;
68614;SDS011;55593;51.994;5.882;2023-08-17T00:47:40;4.72;;;2.25;;
68614;SDS011;55593;51.994;5.882;2023-08-17T00:50:10;9.10;;;2.33;;
68614;SDS011;55593;51.994;5.882;2023-08-17T00:52:40;7.80;;;2.00;;
68614;SDS011;55593;51.994;5.882;2023-08-17T00:55:12;9.13;;;3.35;;
68614;SDS011;55593;51.994;5.882;2023-08-17T00:57:41;5.38;;;2.28;;
68614;SDS011;55593;51.994;5.882;2023-08-17T01:00:11;10.05;;;2.38;;
68614;SDS011;55593;51.994;5.882;2023-08-17T01:02:41;5.60;;;2.42;;
68614;SDS011;55593;51.994;5.882;2023-08-17T01:05:11;6.55;;;2.75;;
68614;SDS011;55593;51.994;5.882;2023-08-17T01:07:41;6.63;;;2.22;;
68614;SDS011;55593;51.994;5.882;2023-08-17T01:10:13;10.73;;;2.83;;
68614;SDS011;55593;51.994;5.882;2023-08-17T01:12:44;9.23;;;2.53;;
68614;SDS011;55593;51.994;5.882;2023-08-17T01:15:16;7.70;;;2.40;;
68614;SDS011;55593;51.994;5.882;2023-08-17T01:17:47;5.88;;;1.73;;
68614;SDS011;55593;51.994;5.882;2023-08-17T01:20:21;7.03;;;2.80;;
68614;SDS011;55593;51.994;5.882;2023-08-17T01:22:52;6.70;;;2.20;;
68614;SDS011;55593;51.994;5.882;2023-08-17T01:25:28;9.02;;;2.42;;
68614;SDS011;55593;51.994;5.882;2023-08-17T01:28:02;5.82;;;2.63;;
68614;SDS011;55593;51.994;5.882;2023-08-17T01:30:33;7.70;;;2.42;;
68614;SDS011;55593;51.994;5.882;2023-08-17T01:33:06;8.07;;;2.10;;
68614;SDS011;55593;51.994;5.882;2023-08-17T01:35:37;7.80;;;2.70;;
68614;SDS011;55593;51.994;5.882;2023-08-17T01:38:09;9.07;;;3.00;;
68614;SDS011;55593;51.994;5.882;2023-08-17T01:40:43;6.35;;;2.40;;
68614;SDS011;55593;51.994;5.882;2023-08-17T01:43:13;5.80;;;1.98;;
68614;SDS011;55593;51.994;5.882;2023-08-17T01:45:44;4.82;;;2.60;;
68614;SDS011;55593;51.994;5.882;2023-08-17T01:48:13;8.70;;;3.13;;
68614;SDS011;55593;51.994;5.882;2023-08-17T01:50:42;11.57;;;2.60;;
68614;SDS011;55593;51.994;5.882;2023-08-17T01:53:11;6.78;;;2.38;;
68614;SDS011;55593;51.994;5.882;2023-08-17T01:55:43;8.07;;;2.60;;
68614;SDS011;55593;51.994;5.882;2023-08-17T01:58:13;7.18;;;2.58;;
68614;SDS011;55593;51.994;5.882;2023-08-17T02:00:42;7.22;;;2.33;;
68614;SDS011;55593;51.994;5.882;2023-08-17T02:03:11;6.95;;;2.35;;
68614;SDS011;55593;51.994;5.882;2023-08-17T02:05:43;5.03;;;2.33;;
68614;SDS011;55593;51.994;5.882;2023-08-17T02:08:14;6.70;;;2.65;;
68614;SDS011;55593;51.994;5.882;2023-08-17T02:10:46;5.65;;;2.42;;
68614;SDS011;55593;51.994;5.882;2023-08-17T02:13:15;9.25;;;2.97;;
68614;SDS011;55593;51.994;5.882;2023-08-17T02:15:44;11.60;;;2.72;;
68614;SDS011;55593;51.994;5.882;2023-08-17T02:18:15;8.13;;;2.95;;
68614;SDS011;55593;51.994;5.882;2023-08-17T02:20:44;10.20;;;2.72;;
68614;SDS011;55593;51.994;5.882;2023-08-17T02:23:14;9.55;;;2.63;;
68614;SDS011;55593;51.994;5.882;2023-08-17T02:25:47;6.85;;;2.58;;
68614;SDS011;55593;51.994;5.882;2023-08-17T02:28:16;7.68;;;2.45;;
68614;SDS011;55593;51.994;5.882;2023-08-17T02:30:45;9.32;;;2.35;;
68614;SDS011;55593;51.994;5.882;2023-08-17T02:33:15;9.05;;;2.60;;
68614;SDS011;55593;51.994;5.882;2023-08-17T02:35:47;6.35;;;2.38;;
68614;SDS011;55593;51.994;5.882;2023-08-17T02:38:17;9.82;;;2.58;;
68614;SDS011;55593;51.994;5.882;2023-08-17T02:40:48;9.27;;;2.28;;
68614;SDS011;55593;51.994;5.882;2023-08-17T02:43:18;8.65;;;2.63;;
68614;SDS011;55593;51.994;5.882;2023-08-17T02:45:47;5.90;;;2.50;;
68614;SDS011;55593;51.994;5.882;2023-08-17T02:48:16;5.05;;;2.83;;
68614;SDS011;55593;51.994;5.882;2023-08-17T02:50:45;10.15;;;2.40;;
68614;SDS011;55593;51.994;5.882;2023-08-17T02:53:14;6.85;;;2.00;;
68614;SDS011;55593;51.994;5.882;2023-08-17T02:55:43;8.43;;;2.45;;
68614;SDS011;55593;51.994;5.882;2023-08-17T02:58:15;6.10;;;2.13;;
68614;SDS011;55593;51.994;5.882;2023-08-17T03:00:44;6.70;;;2.88;;
68614;SDS011;55593;51.994;5.882;2023-08-17T03:03:16;9.90;;;2.50;;
68614;SDS011;55593;51.994;5.882;2023-08-17T03:05:45;6.43;;;2.47;;
68614;SDS011;55593;51.994;5.882;2023-08-17T03:08:15;5.70;;;2.25;;
68614;SDS011;55593;51.994;5.882;2023-08-17T03:10:45;4.18;;;2.03;;
68614;SDS011;55593;51.994;5.882;2023-08-17T03:13:16;6.10;;;2.10;;
68614;SDS011;55593;51.994;5.882;2023-08-17T03:15:46;5.85;;;2.15;;
68614;SDS011;55593;51.994;5.882;2023-08-17T03:18:15;9.65;;;3.33;;
68614;SDS011;55593;51.994;5.882;2023-08-17T03:20:44;9.48;;;2.55;;
68614;SDS011;55593;51.994;5.882;2023-08-17T03:23:14;9.43;;;2.70;;
68614;SDS011;55593;51.994;5.882;2023-08-17T03:25:43;8.88;;;2.25;;
68614;SDS011;55593;51.994;5.882;2023-08-17T03:28:16;6.45;;;2.33;;
68614;SDS011;55593;51.994;5.882;2023-08-17T03:30:46;6.63;;;2.55;;
68614;SDS011;55593;51.994;5.882;2023-08-17T03:33:15;6.75;;;2.53;;
68614;SDS011;55593;51.994;5.882;2023-08-17T03:35:44;10.20;;;3.78;;
68614;SDS011;55593;51.994;5.882;2023-08-17T03:38:13;6.38;;;2.45;;
68614;SDS011;55593;51.994;5.882;2023-08-17T03:40:42;8.07;;;2.53;;
68614;SDS011;55593;51.994;5.882;2023-08-17T03:43:11;10.05;;;2.70;;
68614;SDS011;55593;51.994;5.882;2023-08-17T03:45:43;8.48;;;2.55;;
68614;SDS011;55593;51.994;5.882;2023-08-17T03:48:12;9.48;;;2.70;;
68614;SDS011;55593;51.994;5.882;2023-08-17T03:50:41;7.97;;;2.70;;
68614;SDS011;55593;51.994;5.882;2023-08-17T03:53:11;6.68;;;2.45;;
68614;SDS011;55593;51.994;5.882;2023-08-17T03:55:43;9.23;;;2.70;;
68614;SDS011;55593;51.994;5.882;2023-08-17T03:58:14;5.57;;;2.38;;
68614;SDS011;55593;51.994;5.882;2023-08-17T04:00:51;7.25;;;2.53;;
68614;SDS011;55593;51.994;5.882;2023-08-17T04:03:25;8.32;;;2.42;;
68614;SDS011;55593;51.994;5.882;2023-08-17T04:05:55;8.25;;;2.53;;
68614;SDS011;55593;51.994;5.882;2023-08-17T04:08:24;9.73;;;2.88;;
68614;SDS011;55593;51.994;5.882;2023-08-17T04:10:53;9.80;;;2.88;;
68614;SDS011;55593;51.994;5.882;2023-08-17T04:13:22;8.50;;;2.35;;
68614;SDS011;55593;51.994;5.882;2023-08-17T04:15:55;11.15;;;2.90;;
68614;SDS011;55593;51.994;5.882;2023-08-17T04:18:24;7.82;;;2.30;;
68614;SDS011;55593;51.994;5.882;2023-08-17T04:20:54;12.27;;;3.60;;
68614;SDS011;55593;51.994;5.882;2023-08-17T04:23:23;7.18;;;2.60;;
68614;SDS011;55593;51.994;5.882;2023-08-17T04:25:53;7.75;;;2.67;;
68614;SDS011;55593;51.994;5.882;2023-08-17T04:28:22;5.95;;;2.50;;
68614;SDS011;55593;51.994;5.882;2023-08-17T04:30:52;7.57;;;2.50;;
68614;SDS011;55593;51.994;5.882;2023-08-17T04:33:26;9.65;;;2.72;;
68614;SDS011;55593;51.994;5.882;2023-08-17T04:35:56;7.40;;;2.40;;
68614;SDS011;55593;51.994;5.882;2023-08-17T04:38:26;8.85;;;2.67;;
68614;SDS011;55593;51.994;5.882;2023-08-17T04:40:56;6.20;;;2.47;;
68614;SDS011;55593;51.994;5.882;2023-08-17T04:43:25;8.10;;;2.38;;
68614;SDS011;55593;51.994;5.882;2023-08-17T04:45:57;7.22;;;2.60;;
68614;SDS011;55593;51.994;5.882;2023-08-17T04:48:26;8.55;;;2.70;;
68614;SDS011;55593;51.994;5.882;2023-08-17T04:50:55;9.38;;;2.67;;
68614;SDS011;55593;51.994;5.882;2023-08-17T04:53:24;10.05;;;2.75;;
68614;SDS011;55593;51.994;5.882;2023-08-17T04:55:54;11.68;;;2.60;;
68614;SDS011;55593;51.994;5.882;2023-08-17T04:58:23;6.95;;;2.20;;
68614;SDS011;55593;51.994;5.882;2023-08-17T05:00:52;6.47;;;1.95;;
68614;SDS011;55593;51.994;5.882;2023-08-17T05:03:25;5.53;;;2.30;;
68614;SDS011;55593;51.994;5.882;2023-08-17T05:05:54;7.97;;;2.40;;
68614;SDS011;55593;51.994;5.882;2023-08-17T05:08:23;10.10;;;2.42;;
68614;SDS011;55593;51.994;5.882;2023-08-17T05:10:52;8.38;;;2.42;;
68614;SDS011;55593;51.994;5.882;2023-08-17T05:13:21;6.80;;;2.30;;
68614;SDS011;55593;51.994;5.882;2023-08-17T05:15:51;6.63;;;2.03;;
68614;SDS011;55593;51.994;5.882;2023-08-17T05:18:21;9.38;;;2.90;;
68614;SDS011;55593;51.994;5.882;2023-08-17T05:20:53;9.75;;;2.50;;
68614;SDS011;55593;51.994;5.882;2023-08-17T05:23:22;9.02;;;2.78;;
68614;SDS011;55593;51.994;5.882;2023-08-17T05:25:52;6.35;;;2.35;;
68614;SDS011;55593;51.994;5.882;2023-08-17T05:28:21;10.77;;;2.40;;
68614;SDS011;55593;51.994;5.882;2023-08-17T05:30:50;9.35;;;2.08;;
68614;SDS011;55593;51.994;5.882;2023-08-17T05:33:20;7.07;;;2.22;;
68614;SDS011;55593;51.994;5.882;2023-08-17T05:35:55;10.93;;;2.80;;
68614;SDS011;55593;51.994;5.882;2023-08-17T05:38:25;6.53;;;2.63;;
68614;SDS011;55593;51.994;5.882;2023-08-17T05:40:54;7.82;;;2.60;;
68614;SDS011;55593;51.994;5.882;2023-08-17T05:43:24;6.55;;;1.83;;
68614;SDS011;55593;51.994;5.882;2023-08-17T05:45:56;6.35;;;2.03;;
68614;SDS011;55593;51.994;5.882;2023-08-17T05:48:25;6.32;;;1.90;;
68614;SDS011;55593;51.994;5.882;2023-08-17T05:50:57;6.25;;;2.17;;
68614;SDS011;55593;51.994;5.882;2023-08-17T05:53:26;5.78;;;2.28;;
68614;SDS011;55593;51.994;5.882;2023-08-17T05:55:55;10.55;;;2.67;;
68614;SDS011;55593;51.994;5.882;2023-08-17T05:58:25;4.68;;;2.10;;
68614;SDS011;55593;51.994;5.882;2023-08-17T06:00:54;10.27;;;2.20;;
68614;SDS011;55593;51.994;5.882;2023-08-17T06:03:23;6.93;;;2.20;;
68614;SDS011;55593;51.994;5.882;2023-08-17T06:05:52;6.95;;;2.00;;
68614;SDS011;55593;51.994;5.882;2023-08-17T06:08:24;5.88;;;2.00;;
68614;SDS011;55593;51.994;5.882;2023-08-17T06:10:53;6.30;;;2.20;;
68614;SDS011;55593;51.994;5.882;2023-08-17T06:13:22;8.25;;;2.20;;
68614;SDS011;55593;51.994;5.882;2023-08-17T06:15:52;10.18;;;2.38;;
68614;SDS011;55593;51.994;5.882;2023-08-17T06:18:21;7.05;;;2.08;;
68614;SDS011;55593;51.994;5.882;2023-08-17T06:20:50;10.25;;;2.70;;
68614;SDS011;55593;51.994;5.882;2023-08-17T06:23:19;7.85;;;2.30;;
68614;SDS011;55593;51.994;5.882;2023-08-17T06:25:51;7.05;;;2.22;;
68614;SDS011;55593;51.994;5.882;2023-08-17T06:28:20;5.10;;;2.42;;
68614;SDS011;55593;51.994;5.882;2023-08-17T06:30:51;7.88;;;2.25;;
68614;SDS011;55593;51.994;5.882;2023-08-17T06:33:21;6.07;;;1.92;;
68614;SDS011;55593;51.994;5.882;2023-08-17T06:35:50;11.45;;;2.47;;
68614;SDS011;55593;51.994;5.882;2023-08-17T06:38:19;6.05;;;2.05;;
68614;SDS011;55593;51.994;5.882;2023-08-17T06:40:51;8.90;;;2.03;;
68614;SDS011;55593;51.994;5.882;2023-08-17T06:43:20;6.75;;;2.28;;
68614;SDS011;55593;51.994;5.882;2023-08-17T06:45:50;8.10;;;2.40;;
68614;SDS011;55593;51.994;5.882;2023-08-17T06:48:19;8.25;;;2.25;;
68614;SDS011;55593;51.994;5.882;2023-08-17T06:50:48;8.35;;;2.67;;
68614;SDS011;55593;51.994;5.882;2023-08-17T06:53:17;7.53;;;2.67;;
68614;SDS011;55593;51.994;5.882;2023-08-17T06:55:46;8.27;;;2.65;;
68614;SDS011;55593;51.994;5.882;2023-08-17T06:58:18;6.65;;;2.80;;
68614;SDS011;55593;51.994;5.882;2023-08-17T07:00:47;8.25;;;2.47;;
68614;SDS011;55593;51.994;5.882;2023-08-17T07:03:16;10.40;;;2.45;;
68614;SDS011;55593;51.994;5.882;2023-08-17T07:05:46;8.85;;;3.17;;
68614;SDS011;55593;51.994;5.882;2023-08-17T07:08:15;8.15;;;2.50;;
68614;SDS011;55593;51.994;5.882;2023-08-17T07:10:44;6.28;;;2.50;;
68614;SDS011;55593;51.994;5.882;2023-08-17T07:13:13;8.77;;;2.45;;
68614;SDS011;55593;51.994;5.882;2023-08-17T07:15:45;6.38;;;2.55;;
68614;SDS011;55593;51.994;5.882;2023-08-17T07:18:14;8.50;;;3.15;;
68614;SDS011;55593;51.994;5.882;2023-08-17T07:20:43;10.95;;;2.55;;
68614;SDS011;55593;51.994;5.882;2023-08-17T07:23:12;10.40;;;2.35;;
68614;SDS011;55593;51.994;5.882;2023-08-17T07:25:41;8.05;;;2.70;;
68614;SDS011;55593;51.994;5.882;2023-08-17T07:28:11;9.27;;;2.58;;
68614;SDS011;55593;51.994;5.882;2023-08-17T07:30:41;9.70;;;2.88;;
68614;SDS011;55593;51.994;5.882;2023-08-17T07:33:13;6.50;;;2.55;;
68614;SDS011;55593;51.994;5.882;2023-08-17T07:35:42;10.18;;;2.72;;
68614;SDS011;55593;51.994;5.882;2023-08-17T07:38:11;8.13;;;2.60;;
68614;SDS011;55593;51.994;5.882;2023-08-17T07:40:40;7.43;;;2.45;;
68614;SDS011;55593;51.994;5.882;2023-08-17T07:43:09;5.88;;;2.40;;
68614;SDS011;55593;51.994;5.882;2023-08-17T07:45:39;5.38;;;2.33;;
68614;SDS011;55593;51.994;5.882;2023-08-17T07:48:08;6.50;;;2.58;;
68614;SDS011;55593;51.994;5.882;2023-08-17T07:50:39;9.88;;;2.78;;
68614;SDS011;55593;51.994;5.882;2023-08-17T07:53:08;8.75;;;2.47;;
68614;SDS011;55593;51.994;5.882;2023-08-17T07:55:38;10.85;;;3.25;;
68614;SDS011;55593;51.994;5.882;2023-08-17T07:58:07;10.38;;;2.65;;
68614;SDS011;55593;51.994;5.882;2023-08-17T08:00:36;8.55;;;2.50;;
68614;SDS011;55593;51.994;5.882;2023-08-17T08:03:05;9.57;;;2.85;;
68614;SDS011;55593;51.994;5.882;2023-08-17T08:05:34;9.38;;;3.15;;
68614;SDS011;55593;51.994;5.882;2023-08-17T08:08:06;13.10;;;3.30;;
68614;SDS011;55593;51.994;5.882;2023-08-17T08:10:35;8.48;;;2.67;;
68614;SDS011;55593;51.994;5.882;2023-08-17T08:13:04;8.88;;;3.05;;
68614;SDS011;55593;51.994;5.882;2023-08-17T08:15:33;6.50;;;2.83;;
68614;SDS011;55593;51.994;5.882;2023-08-17T08:18:03;10.88;;;3.28;;
68614;SDS011;55593;51.994;5.882;2023-08-17T08:20:32;6.55;;;2.70;;
68614;SDS011;55593;51.994;5.882;2023-08-17T08:23:01;9.63;;;3.00;;
68614;SDS011;55593;51.994;5.882;2023-08-17T08:25:34;15.30;;;4.05;;
68614;SDS011;55593;51.994;5.882;2023-08-17T08:28:04;13.60;;;3.30;;
68614;SDS011;55593;51.994;5.882;2023-08-17T08:30:34;9.88;;;3.38;;
68614;SDS011;55593;51.994;5.882;2023-08-17T08:33:03;9.20;;;3.03;;
68614;SDS011;55593;51.994;5.882;2023-08-17T08:35:33;7.60;;;2.75;;
68614;SDS011;55593;51.994;5.882;2023-08-17T08:38:02;11.57;;;2.83;;
68614;SDS011;55593;51.994;5.882;2023-08-17T08:40:34;12.55;;;3.40;;
68614;SDS011;55593;51.994;5.882;2023-08-17T08:43:06;9.20;;;3.30;;
68614;SDS011;55593;51.994;5.882;2023-08-17T08:45:36;8.90;;;3.28;;
68614;SDS011;55593;51.994;5.882;2023-08-17T08:48:06;7.90;;;3.30;;
68614;SDS011;55593;51.994;5.882;2023-08-17T08:50:38;11.05;;;3.05;;
68614;SDS011;55593;51.994;5.882;2023-08-17T08:53:10;8.32;;;3.35;;
68614;SDS011;55593;51.994;5.882;2023-08-17T08:55:45;8.35;;;2.90;;
68614;SDS011;55593;51.994;5.882;2023-08-17T08:58:16;8.27;;;3.00;;
68614;SDS011;55593;51.994;5.882;2023-08-17T09:00:46;10.65;;;3.90;;
68614;SDS011;55593;51.994;5.882;2023-08-17T09:03:16;9.73;;;3.53;;
68614;SDS011;55593;51.994;5.882;2023-08-17T09:05:46;7.30;;;2.53;;
68614;SDS011;55593;51.994;5.882;2023-08-17T09:08:17;10.48;;;3.72;;
68614;SDS011;55593;51.994;5.882;2023-08-17T09:10:51;7.28;;;3.38;;
68614;SDS011;55593;51.994;5.882;2023-08-17T09:13:21;12.25;;;4.07;;
68614;SDS011;55593;51.994;5.882;2023-08-17T09:15:50;14.82;;;4.20;;
68614;SDS011;55593;51.994;5.882;2023-08-17T09:18:19;14.35;;;4.65;;
68614;SDS011;55593;51.994;5.882;2023-08-17T09:20:48;10.32;;;4.25;;
68614;SDS011;55593;51.994;5.882;2023-08-17T09:23:20;8.27;;;3.72;;
68614;SDS011;55593;51.994;5.882;2023-08-17T09:25:53;13.32;;;4.13;;
68614;SDS011;55593;51.994;5.882;2023-08-17T09:28:24;11.52;;;4.30;;
68614;SDS011;55593;51.994;5.882;2023-08-17T09:30:53;9.43;;;4.20;;
68614;SDS011;55593;51.994;5.882;2023-08-17T09:33:24;10.27;;;5.35;;
68614;SDS011;55593;51.994;5.882;2023-08-17T09:35:54;12.05;;;4.78;;
68614;SDS011;55593;51.994;5.882;2023-08-17T09:38:24;8.30;;;4.45;;
68614;SDS011;55593;51.994;5.882;2023-08-17T09:40:56;11.27;;;4.80;;
68614;SDS011;55593;51.994;5.882;2023-08-17T09:43:26;12.57;;;4.75;;
68614;SDS011;55593;51.994;5.882;2023-08-17T09:45:58;13.73;;;5.65;;
68614;SDS011;55593;51.994;5.882;2023-08-17T09:48:28;9.00;;;4.88;;
68614;SDS011;55593;51.994;5.882;2023-08-17T09:50:57;10.70;;;4.97;;
68614;SDS011;55593;51.994;5.882;2023-08-17T09:53:28;15.20;;;5.30;;
68614;SDS011;55593;51.994;5.882;2023-08-17T09:55:59;9.93;;;5.28;;
68614;SDS011;55593;51.994;5.882;2023-08-17T09:58:29;11.13;;;4.63;;
68614;SDS011;55593;51.994;5.882;2023-08-17T10:00:58;14.30;;;4.80;;
68614;SDS011;55593;51.994;5.882;2023-08-17T10:03:32;8.40;;;4.18;;
68614;SDS011;55593;51.994;5.882;2023-08-17T10:06:04;15.15;;;4.93;;
68614;SDS011;55593;51.994;5.882;2023-08-17T10:08:36;13.95;;;4.68;;
68614;SDS011;55593;51.994;5.882;2023-08-17T10:11:11;11.15;;;4.95;;
68614;SDS011;55593;51.994;5.882;2023-08-17T10:13:42;11.57;;;4.78;;
68614;SDS011;55593;51.994;5.882;2023-08-17T10:16:14;11.10;;;5.60;;
68614;SDS011;55593;51.994;5.882;2023-08-17T10:18:50;12.37;;;5.00;;
68614;SDS011;55593;51.994;5.882;2023-08-17T10:21:23;11.38;;;5.68;;
68614;SDS011;55593;51.994;5.882;2023-08-17T10:23:56;11.30;;;4.60;;
68614;SDS011;55593;51.994;5.882;2023-08-17T10:26:28;10.40;;;4.63;;
68614;SDS011;55593;51.994;5.882;2023-08-17T10:28:58;9.00;;;4.80;;
68614;SDS011;55593;51.994;5.882;2023-08-17T10:31:28;13.40;;;5.43;;
68614;SDS011;55593;51.994;5.882;2023-08-17T10:33:57;9.75;;;4.20;;
68614;SDS011;55593;51.994;5.882;2023-08-17T10:36:26;11.10;;;4.97;;
68614;SDS011;55593;51.994;5.882;2023-08-17T10:41:49;14.18;;;4.93;;
68614;SDS011;55593;51.994;5.882;2023-08-17T10:44:37;11.18;;;5.65;;
68614;SDS011;55593;51.994;5.882;2023-08-17T10:49:52;11.15;;;5.43;;
68614;SDS011;55593;51.994;5.882;2023-08-17T10:52:25;12.13;;;5.30;;
68614;SDS011;55593;51.994;5.882;2023-08-17T10:55:02;10.20;;;5.40;;
68614;SDS011;55593;51.994;5.882;2023-08-17T10:57:36;13.40;;;5.03;;
68614;SDS011;55593;51.994;5.882;2023-08-17T11:00:15;12.65;;;6.35;;
68614;SDS011;55593;51.994;5.882;2023-08-17T11:02:52;9.85;;;4.78;;
68614;SDS011;55593;51.994;5.882;2023-08-17T11:05:34;9.93;;;4.70;;
68614;SDS011;55593;51.994;5.882;2023-08-17T11:08:04;11.10;;;5.65;;
68614;SDS011;55593;51.994;5.882;2023-08-17T11:10:35;12.30;;;5.15;;
68614;SDS011;55593;51.994;5.882;2023-08-17T11:13:07;12.13;;;5.13;;
68614;SDS011;55593;51.994;5.882;2023-08-17T11:15:36;12.82;;;5.40;;
68614;SDS011;55593;51.994;5.882;2023-08-17T11:18:08;12.70;;;5.70;;
68614;SDS011;55593;51.994;5.882;2023-08-17T11:20:38;11.10;;;4.70;;
68614;SDS011;55593;51.994;5.882;2023-08-17T11:23:08;9.60;;;4.97;;
68614;SDS011;55593;51.994;5.882;2023-08-17T11:25:38;9.82;;;5.22;;
68614;SDS011;55593;51.994;5.882;2023-08-17T11:28:10;9.65;;;5.35;;
68614;SDS011;55593;51.994;5.882;2023-08-17T11:30:40;10.82;;;5.30;;
68614;SDS011;55593;51.994;5.882;2023-08-17T11:33:09;11.25;;;5.13;;
68614;SDS011;55593;51.994;5.882;2023-08-17T11:35:39;12.48;;;5.13;;
68614;SDS011;55593;51.994;5.882;2023-08-17T11:38:08;9.82;;;5.10;;
68614;SDS011;55593;51.994;5.882;2023-08-17T11:40:37;11.98;;;5.50;;
68614;SDS011;55593;51.994;5.882;2023-08-17T11:43:12;9.43;;;5.10;;
68614;SDS011;55593;51.994;5.882;2023-08-17T11:45:42;10.88;;;5.10;;
68614;SDS011;55593;51.994;5.882;2023-08-17T11:48:11;8.98;;;4.78;;
68614;SDS011;55593;51.994;5.882;2023-08-17T11:50:42;11.23;;;5.82;;
68614;SDS011;55593;51.994;5.882;2023-08-17T11:53:11;14.25;;;5.78;;
68614;SDS011;55593;51.994;5.882;2023-08-17T11:55:40;10.88;;;5.40;;
68614;SDS011;55593;51.994;5.882;2023-08-17T11:58:12;11.75;;;6.22;;
68614;SDS011;55593;51.994;5.882;2023-08-17T12:00:42;14.40;;;5.45;;
68614;SDS011;55593;51.994;5.882;2023-08-17T12:03:13;11.02;;;5.57;;
68614;SDS011;55593;51.994;5.882;2023-08-17T12:05:43;14.15;;;5.75;;
68614;SDS011;55593;51.994;5.882;2023-08-17T12:08:14;11.13;;;6.15;;
68614;SDS011;55593;51.994;5.882;2023-08-17T12:10:43;12.00;;;5.03;;
68614;SDS011;55593;51.994;5.882;2023-08-17T12:13:15;8.70;;;4.22;;
68614;SDS011;55593;51.994;5.882;2023-08-17T12:15:44;11.05;;;5.10;;
68614;SDS011;55593;51.994;5.882;2023-08-17T12:18:14;12.63;;;4.88;;
68614;SDS011;55593;51.994;5.882;2023-08-17T12:20:51;9.77;;;4.55;;
68614;SDS011;55593;51.994;5.882;2023-08-17T12:23:21;11.10;;;5.60;;
68614;SDS011;55593;51.994;5.882;2023-08-17T12:25:53;11.63;;;5.80;;
68614;SDS011;55593;51.994;5.882;2023-08-17T12:28:25;9.05;;;5.35;;
68614;SDS011;55593;51.994;5.882;2023-08-17T12:30:58;7.97;;;5.13;;
68614;SDS011;55593;51.994;5.882;2023-08-17T12:33:28;9.52;;;5.82;;
68614;SDS011;55593;51.994;5.882;2023-08-17T12:35:58;11.82;;;6.10;;
68614;SDS011;55593;51.994;5.882;2023-08-17T12:38:27;11.32;;;6.10;;
68614;SDS011;55593;51.994;5.882;2023-08-17T12:40:56;8.35;;;5.80;;
68614;SDS011;55593;51.994;5.882;2023-08-17T12:43:28;16.60;;;6.65;;
68614;SDS011;55593;51.994;5.882;2023-08-17T12:45:57;13.38;;;6.13;;
68614;SDS011;55593;51.994;5.882;2023-08-17T12:48:26;11.38;;;5.60;;
68614;SDS011;55593;51.994;5.882;2023-08-17T12:50:55;12.20;;;5.95;;
68614;SDS011;55593;51.994;5.882;2023-08-17T12:53:24;9.73;;;6.05;;
68614;SDS011;55593;51.994;5.882;2023-08-17T12:55:53;12.40;;;5.93;;
68614;SDS011;55593;51.994;5.882;2023-08-17T12:58:23;12.93;;;5.60;;
68614;SDS011;55593;51.994;5.882;2023-08-17T13:00:54;10.43;;;4.97;;
68614;SDS011;55593;51.994;5.882;2023-08-17T13:03:23;8.60;;;6.70;;
68614;SDS011;55593;51.994;5.882;2023-08-17T13:05:53;10.20;;;6.70;;
68614;SDS011;55593;51.994;5.882;2023-08-17T13:08:22;13.10;;;6.90;;
68614;SDS011;55593;51.994;5.882;2023-08-17T13:10:51;10.23;;;6.13;;
68614;SDS011;55593;51.994;5.882;2023-08-17T13:13:20;11.50;;;6.45;;
68614;SDS011;55593;51.994;5.882;2023-08-17T13:15:49;14.05;;;5.97;;
68614;SDS011;55593;51.994;5.882;2023-08-17T13:18:21;11.75;;;6.82;;
68614;SDS011;55593;51.994;5.882;2023-08-17T13:20:50;9.00;;;5.40;;
68614;SDS011;55593;51.994;5.882;2023-08-17T13:23:19;18.90;;;5.88;;
68614;SDS011;55593;51.994;5.882;2023-08-17T13:25:48;13.88;;;7.03;;
68614;SDS011;55593;51.994;5.882;2023-08-17T13:28:17;11.02;;;6.20;;
68614;SDS011;55593;51.994;5.882;2023-08-17T13:30:47;11.15;;;6.28;;
68614;SDS011;55593;51.994;5.882;2023-08-17T13:33:16;12.68;;;7.13;;
68614;SDS011;55593;51.994;5.882;2023-08-17T13:35:47;9.95;;;6.22;;
68614;SDS011;55593;51.994;5.882;2023-08-17T13:38:17;14.45;;;7.28;;
68614;SDS011;55593;51.994;5.882;2023-08-17T13:40:46;14.20;;;8.20;;
68614;SDS011;55593;51.994;5.882;2023-08-17T13:43:15;9.85;;;6.50;;
68614;SDS011;55593;51.994;5.882;2023-08-17T13:45:44;11.43;;;6.53;;
68614;SDS011;55593;51.994;5.882;2023-08-17T13:48:13;12.63;;;6.47;;
68614;SDS011;55593;51.994;5.882;2023-08-17T13:50:43;13.85;;;6.70;;
68614;SDS011;55593;51.994;5.882;2023-08-17T13:53:14;11.40;;;7.10;;
68614;SDS011;55593;51.994;5.882;2023-08-17T13:55:43;11.57;;;6.82;;
68614;SDS011;55593;51.994;5.882;2023-08-17T13:58:12;13.57;;;6.75;;
68614;SDS011;55593;51.994;5.882;2023-08-17T14:00:42;11.90;;;6.10;;
68614;SDS011;55593;51.994;5.882;2023-08-17T14:03:11;13.75;;;7.95;;
68614;SDS011;55593;51.994;5.882;2023-08-17T14:05:40;10.48;;;6.82;;
68614;SDS011;55593;51.994;5.882;2023-08-17T14:08:10;10.20;;;5.82;;
68614;SDS011;55593;51.994;5.882;2023-08-17T14:10:42;12.13;;;6.00;;
68614;SDS011;55593;51.994;5.882;2023-08-17T14:13:11;10.80;;;6.53;;
68614;SDS011;55593;51.994;5.882;2023-08-17T14:15:40;11.23;;;6.90;;
68614;SDS011;55593;51.994;5.882;2023-08-17T14:18:09;11.60;;;6.38;;
68614;SDS011;55593;51.994;5.882;2023-08-17T14:20:38;9.77;;;6.82;;
68614;SDS011;55593;51.994;5.882;2023-08-17T14:23:07;10.52;;;6.45;;
68614;SDS011;55593;51.994;5.882;2023-08-17T14:25:36;11.45;;;5.57;;
68614;SDS011;55593;51.994;5.882;2023-08-17T14:28:08;10.55;;;6.32;;
68614;SDS011;55593;51.994;5.882;2023-08-17T14:30:37;13.05;;;6.40;;
68614;SDS011;55593;51.994;5.882;2023-08-17T14:33:06;10.10;;;6.20;;
68614;SDS011;55593;51.994;5.882;2023-08-17T14:35:35;10.75;;;6.22;;
68614;SDS011;55593;51.994;5.882;2023-08-17T14:38:04;10.93;;;6.78;;
68614;SDS011;55593;51.994;5.882;2023-08-17T14:40:35;13.00;;;7.57;;
68614;SDS011;55593;51.994;5.882;2023-08-17T14:43:04;13.15;;;7.38;;
68614;SDS011;55593;51.994;5.882;2023-08-17T14:45:37;11.00;;;7.80;;
68614;SDS011;55593;51.994;5.882;2023-08-17T14:48:07;8.10;;;6.68;;
68614;SDS011;55593;51.994;5.882;2023-08-17T14:50:36;13.32;;;8.55;;
68614;SDS011;55593;51.994;5.882;2023-08-17T14:53:06;12.15;;;7.75;;
68614;SDS011;55593;51.994;5.882;2023-08-17T14:55:35;15.13;;;8.80;;
68614;SDS011;55593;51.994;5.882;2023-08-17T14:58:04;11.13;;;8.15;;
68614;SDS011;55593;51.994;5.882;2023-08-17T15:00:33;13.25;;;8.55;;
68614;SDS011;55593;51.994;5.882;2023-08-17T15:03:05;14.15;;;9.13;;
68614;SDS011;55593;51.994;5.882;2023-08-17T15:05:34;13.90;;;8.80;;